Time;durP1;ratioP1;P1;durP2;ratioP2;P2;SDS_P1;SDS_P2;PMS_P1;PMS_P2;Temp;Humidity;BMP_temperature;BMP_pressure;BME280_temperature;BME280_humidity;BME280_pressure;Samples;Min_cycle;Max_cycle;Signal;HPM_P1;HPM_P2
2023/01/14 00:03:55;;;;;;;;;;;;;;;7.99;86.24;100217.28;5032047;28;19972;-83
2023/01/14 00:06:21;;;;;;;;;;;;;;;8.05;86.15;100212.91;5032630;28;19913;-83
2023/01/14 00:08:51;;;;;;;;;;;;;;;8.01;86.08;100210.25;5035891;28;19920;-84
2023/01/14 00:11:17;;;;;;;;;;;;;;;7.92;86.89;100211.09;5036102;28;19948;-83
2023/01/14 00:13:42;;;;;;;;;;;;;;;7.94;86.98;100213.72;5035927;28;20319;-83
2023/01/14 00:16:10;;;;;;;;;;;;;;;8.06;86.30;100219.94;5035687;28;19913;-84
2023/01/14 00:18:36;;;;;;;;;;;;;;;8.07;85.91;100216.41;5035899;28;19923;-84
2023/01/14 00:21:12;;;;;;;;;;;;;;;8.02;86.02;100218.16;5035750;28;20279;-84
2023/01/14 00:23:37;;;;;;;;;;;;;;;7.87;86.69;100210.19;5036038;28;19913;-84
2023/01/14 00:29:08;;;;;;;;;;;;;;;7.87;88.03;100205.81;5035933;28;20003;-84
2023/01/14 00:31:34;;;;;;;;;;;;;;;8.05;86.74;100212.91;5033998;28;20385;-84
2023/01/14 00:34:00;;;;;;;;;;;;;;;8.10;87.12;100212.06;5035522;28;20008;-84
2023/01/14 00:36:25;;;;;;;;;;;;;;;8.24;85.90;100203.31;5035480;28;20493;-84
2023/01/14 00:38:52;;;;;;;;;;;;;;;8.12;85.96;100211.16;5035228;28;19992;-84
2023/01/14 00:41:19;;;;;;;;;;;;;;;8.23;85.49;100211.19;5035192;28;19998;-84
2023/01/14 00:43:48;;;;;;;;;;;;;;;8.10;85.66;100210.28;5035501;28;19917;-84
2023/01/14 00:46:15;;;;;;;;;;;;;;;8.19;85.95;100210.31;5035075;28;20008;-85
2023/01/14 00:48:40;;;;;;;;;;;;;;;8.22;85.35;100210.31;5035475;28;19913;-84
2023/01/14 00:51:06;;;;;;;;;;;;;;;8.39;85.49;100213.00;5034904;28;19913;-85
2023/01/14 00:53:31;;;;;;;;;;;;;;;8.45;84.67;100219.16;5035278;28;19919;-83
2023/01/14 00:55:57;;;;;;;;;;;;;;;8.51;84.17;100213.91;5034860;28;19921;-84
2023/01/14 00:58:23;;;;;;;;;;;;;;;8.56;84.56;100214.81;5034937;28;19982;-85
2023/01/14 01:00:48;;;;;;;;;;;;;;;8.58;84.09;100211.31;5034615;28;20284;-85
2023/01/14 01:03:14;;;;;;;;;;;;;;;8.60;83.95;100211.31;5034960;28;19962;-85
2023/01/14 01:05:40;;;;;;;;;;;;;;;8.69;83.71;100202.56;5034572;28;20402;-85
2023/01/14 01:11:08;;;;;;;;;;;;;;;8.74;82.72;100209.59;5035016;28;19962;-86
2023/01/14 01:13:34;;;;;;;;;;;;;;;8.73;82.91;100202.56;5034281;28;20363;-86
2023/01/14 01:16:01;;;;;;;;;;;;;;;8.66;82.67;100200.78;5033298;28;19919;-84
2023/01/14 01:18:26;;;;;;;;;;;;;;;8.74;82.99;100196.44;5035103;28;19913;-84
2023/01/14 01:23:55;;;;;;;;;;;;;;;8.78;82.30;100197.31;5034538;28;19944;-84
2023/01/14 01:26:21;;;;;;;;;;;;;;;8.75;81.97;100194.66;5034701;28;20326;-84
2023/01/14 01:28:47;;;;;;;;;;;;;;;8.71;82.13;100195.53;5034576;28;19920;-84
2023/01/14 01:31:13;;;;;;;;;;;;;;;8.74;82.13;100192.91;5034730;28;19913;-84
2023/01/14 01:33:39;;;;;;;;;;;;;;;8.77;82.21;100191.19;5034022;28;19978;-84
2023/01/14 01:36:06;;;;;;;;;;;;;;;8.80;82.17;100184.16;5034533;28;20333;-84
2023/01/14 01:38:32;;;;;;;;;;;;;;;8.83;82.13;100179.75;5033899;28;19920;-85
2023/01/14 01:40:58;;;;;;;;;;;;;;;8.85;81.87;100180.66;5034145;28;19913;-85
2023/01/14 01:43:29;;;;;;;;;;;;;;;8.87;81.51;100173.63;5034064;28;19917;-85
2023/01/14 01:45:56;;;;;;;;;;;;;;;8.89;81.56;100171.00;5034481;28;19913;-85
2023/01/14 01:48:22;;;;;;;;;;;;;;;8.88;81.12;100169.22;5034665;28;19913;-85
2023/01/14 01:50:49;;;;;;;;;;;;;;;8.81;81.10;100165.75;5033911;28;19920;-85
2023/01/14 01:53:15;;;;;;;;;;;;;;;8.85;80.82;100163.97;5033776;28;20371;-85
2023/01/14 01:55:42;;;;;;;;;;;;;;;8.92;80.58;100155.22;5033493;28;19914;-85
2023/01/14 01:58:09;;;;;;;;;;;;;;;8.80;81.24;100161.34;5033792;28;19956;-85
2023/01/14 02:00:34;;;;;;;;;;;;;;;8.79;80.85;100149.09;5033947;28;19913;-84
2023/01/14 02:03:02;;;;;;;;;;;;;;;8.75;81.01;100145.56;5033379;28;19913;-84
2023/01/14 02:05:28;;;;;;;;;;;;;;;8.83;81.41;100144.69;5033577;28;20000;-84
2023/01/14 02:07:55;;;;;;;;;;;;;;;8.78;80.97;100147.31;5033755;28;19963;-84
2023/01/14 02:10:24;;;;;;;;;;;;;;;8.73;81.16;100143.81;5033699;28;19913;-85
2023/01/14 02:12:52;;;;;;;;;;;;;;;8.64;81.36;100141.19;5034125;28;19913;-85
2023/01/14 02:15:20;;;;;;;;;;;;;;;8.64;81.18;100141.19;5033826;28;19920;-84
2023/01/14 02:18:07;;;;;;;;;;;;;;;8.58;81.15;100144.69;5033417;28;20386;-84
2023/01/14 02:20:36;;;;;;;;;;;;;;;8.56;82.11;100142.06;5033233;28;19920;-85
2023/01/14 02:23:01;;;;;;;;;;;;;;;8.65;81.74;100137.66;5033583;28;20000;-84
2023/01/14 02:25:26;;;;;;;;;;;;;;;8.67;81.56;100136.81;5033623;28;20020;-84
2023/01/14 02:28:18;;;;;;;;;;;;;;;8.62;80.84;100140.31;5033570;28;19913;-84
2023/01/14 02:33:49;;;;;;;;;;;;;;;8.30;83.24;100122.75;5033376;28;20002;-84
2023/01/14 02:36:17;;;;;;;;;;;;;;;8.29;82.86;100121.84;5033318;28;20003;-85
2023/01/14 02:38:43;;;;;;;;;;;;;;;8.32;83.01;100126.25;5033073;28;19919;-85
2023/01/14 02:44:27;;;;;;;;;;;;;;;8.33;82.77;100125.38;5031854;28;19924;-84
2023/01/14 02:46:55;;;;;;;;;;;;;;;8.30;83.03;100123.59;5032680;28;19913;-84
2023/01/14 02:49:23;;;;;;;;;;;;;;;8.32;83.44;100126.25;5032807;28;19913;-83
2023/01/14 02:51:49;;;;;;;;;;;;;;;8.43;83.32;100124.47;5032765;28;19952;-84
2023/01/14 02:54:16;;;;;;;;;;;;;;;8.41;82.44;100131.50;5033047;28;19956;-83
2023/01/14 02:56:42;;;;;;;;;;;;;;;8.35;82.60;100127.09;5032751;28;19955;-83
2023/01/14 02:59:29;;;;;;;;;;;;;;;8.31;82.99;100129.72;5032916;28;19913;-82
2023/01/14 03:02:13;;;;;;;;;;;;;;;8.42;82.96;100128.00;5032810;28;19956;-82
2023/01/14 03:04:38;;;;;;;;;;;;;;;8.38;82.71;100136.75;5032362;28;20456;-84
2023/01/14 03:07:23;;;;;;;;;;;;;;;8.48;82.25;100138.56;5032492;28;20015;-83
2023/01/14 03:10:01;;;;;;;;;;;;;;;8.50;82.72;100142.06;5032439;28;19944;-84
2023/01/14 03:12:42;;;;;;;;;;;;;;;8.57;82.69;100148.19;5032434;28;19913;-84
2023/01/14 03:15:13;;;;;;;;;;;;;;;8.59;82.41;100152.59;5031147;28;20326;-84
2023/01/14 03:17:41;;;;;;;;;;;;;;;8.48;82.62;100146.44;5030952;28;20295;-84
2023/01/14 03:20:09;;;;;;;;;;;;;;;8.39;82.62;100151.66;5032158;28;20359;-84
2023/01/14 03:22:35;;;;;;;;;;;;;;;8.25;83.33;100146.38;5032366;28;19913;-84
2023/01/14 03:25:02;;;;;;;;;;;;;;;8.27;83.41;100152.50;5032278;28;19971;-85
2023/01/14 03:27:31;;;;;;;;;;;;;;;8.22;84.51;100147.25;5032221;28;19913;-85
2023/01/14 03:30:01;;;;;;;;;;;;;;;8.19;84.36;100156.88;5032371;28;19913;-85
2023/01/14 03:32:32;;;;;;;;;;;;;;;8.15;84.69;100150.72;5032783;28;19913;-85
2023/01/14 03:35:21;;;;;;;;;;;;;;;7.75;86.11;100160.25;5032150;28;19914;-84
2023/01/14 03:37:49;;;;;;;;;;;;;;;7.79;85.59;100154.16;5031755;28;19917;-84
2023/01/14 03:40:15;;;;;;;;;;;;;;;7.77;86.79;100161.13;5030597;28;20268;-84
2023/01/14 03:42:44;;;;;;;;;;;;;;;7.61;86.95;100158.44;5035275;28;20433;-84
2023/01/14 03:45:13;;;;;;;;;;;;;;;7.93;85.42;100160.31;5035149;28;20261;-84
2023/01/14 03:47:38;;;;;;;;;;;;;;;7.81;85.80;100161.13;5036563;28;19914;-84
2023/01/14 03:50:07;;;;;;;;;;;;;;;7.95;84.56;100163.81;5036689;28;19936;-84
2023/01/14 03:52:32;;;;;;;;;;;;;;;7.76;84.88;100165.50;5036467;28;19913;-84
2023/01/14 03:55:24;;;;;;;;;;;;;;;7.67;85.11;100166.34;5036015;28;19913;-85
2023/01/14 03:57:49;;;;;;;;;;;;;;;7.79;84.92;100167.28;5035168;28;19917;-85
2023/01/14 04:00:26;;;;;;;;;;;;;;;7.87;84.75;100163.78;5035904;28;20045;-84
2023/01/14 04:02:54;;;;;;;;;;;;;;;7.58;85.57;100161.03;5036099;28;20000;-83
2023/01/14 04:05:19;;;;;;;;;;;;;;;7.74;85.18;100155.84;5036035;28;19913;-84
2023/01/14 04:07:47;;;;;;;;;;;;;;;7.84;84.86;100157.66;5034781;28;19923;-84
2023/01/14 04:10:12;;;;;;;;;;;;;;;8.05;83.53;100162.97;5035892;28;19913;-83
2023/01/14 04:15:20;;;;;;;;;;;;;;;8.03;83.50;100161.22;5035999;28;19919;-84
2023/01/14 04:15:22;;;;;;;;;;;;;;;7.89;83.32;100163.78;5035454;28;20008;-83
2023/01/14 04:17:48;;;;;;;;;;;;;;;8.06;82.96;100154.22;5034755;28;19975;-83
2023/01/14 04:20:13;;;;;;;;;;;;;;;8.03;82.43;100162.09;5035447;28;20000;-83
2023/01/14 04:22:38;;;;;;;;;;;;;;;7.97;83.19;100153.31;5035681;28;20000;-84
2023/01/14 04:25:04;;;;;;;;;;;;;;;8.07;82.21;100161.22;5035422;28;20368;-85
2023/01/14 04:27:29;;;;;;;;;;;;;;;8.18;82.19;100160.38;5035615;28;20264;-83
2023/01/14 04:29:54;;;;;;;;;;;;;;;8.20;81.78;100166.50;5035768;28;19917;-84
2023/01/14 04:32:20;;;;;;;;;;;;;;;8.22;81.32;100162.16;5035772;28;20477;-85
2023/01/14 04:34:45;;;;;;;;;;;;;;;8.29;81.55;100160.41;5035657;28;20062;-84
2023/01/14 04:37:10;;;;;;;;;;;;;;;8.32;81.59;100161.28;5036079;28;20000;-84
2023/01/14 04:39:38;;;;;;;;;;;;;;;8.33;80.78;100159.53;5034758;28;20264;-84
2023/01/14 04:44:47;;;;;;;;;;;;;;;8.41;80.61;100163.91;5035082;28;19924;-84
2023/01/14 04:47:14;;;;;;;;;;;;;;;8.40;80.48;100162.19;5035308;28;20020;-84
2023/01/14 04:49:39;;;;;;;;;;;;;;;8.44;80.14;100159.59;5035599;28;19971;-82
2023/01/14 04:52:04;;;;;;;;;;;;;;;8.37;80.86;100156.91;5035260;28;19917;-84
2023/01/14 04:54:30;;;;;;;;;;;;;;;8.44;80.42;100163.09;5035315;28;19919;-84
2023/01/14 04:56:55;;;;;;;;;;;;;;;8.59;80.12;100167.50;5034872;28;20433;-85
2023/01/14 04:59:20;;;;;;;;;;;;;;;8.47;80.23;100165.72;5035368;28;19943;-84
2023/01/14 05:01:46;;;;;;;;;;;;;;;8.44;80.40;100173.59;5035062;28;19913;-85
2023/01/14 05:04:11;;;;;;;;;;;;;;;8.40;80.09;100170.06;5033935;28;19913;-85
2023/01/14 05:06:37;;;;;;;;;;;;;;;8.55;80.48;100168.34;5035085;28;20003;-84
2023/01/14 05:09:02;;;;;;;;;;;;;;;8.52;80.03;100170.97;5035117;28;19913;-85
2023/01/14 05:11:27;;;;;;;;;;;;;;;8.50;79.88;100178.88;5035276;28;19913;-84
2023/01/14 05:13:53;;;;;;;;;;;;;;;8.51;79.97;100179.75;5033174;28;19913;-85
2023/01/14 05:16:18;;;;;;;;;;;;;;;8.47;80.82;100175.38;5034684;28;20051;-85
2023/01/14 05:18:44;;;;;;;;;;;;;;;8.47;80.73;100180.63;5034763;28;19936;-84
2023/01/14 05:21:09;;;;;;;;;;;;;;;8.41;80.17;100182.31;5034537;28;19928;-84
2023/01/14 05:26:37;;;;;;;;;;;;;;;8.23;81.24;100182.28;5034538;28;19932;-85
2023/01/14 05:29:02;;;;;;;;;;;;;;;8.31;80.93;100183.19;5034386;28;19913;-85
2023/01/14 05:31:28;;;;;;;;;;;;;;;8.40;81.33;100177.97;5034412;28;20058;-85
2023/01/14 05:33:53;;;;;;;;;;;;;;;8.47;80.49;100180.63;5034441;28;19919;-86
2023/01/14 05:39:21;;;;;;;;;;;;;;;8.47;80.38;100181.50;5034331;28;19931;-86
2023/01/14 05:50:17;;;;;;;;;;;;;;;8.50;80.02;100180.63;5034669;28;19935;-85
2023/01/14 05:52:42;;;;;;;;;;;;;;;8.49;80.21;100177.09;5033974;28;19918;-85
2023/01/14 05:55:08;;;;;;;;;;;;;;;8.52;80.66;100179.75;5034061;28;20372;-84
2023/01/14 05:57:33;;;;;;;;;;;;;;;8.42;80.42;100172.69;5033800;28;19913;-84
2023/01/14 05:59:58;;;;;;;;;;;;;;;8.38;81.48;100173.56;5034104;28;19919;-84
2023/01/14 06:07:55;;;;;;;;;;;;;;;8.42;80.99;100170.06;5033850;28;19975;-83
2023/01/14 06:13:23;;;;;;;;;;;;;;;8.34;81.01;100169.16;5033997;28;20295;-83
2023/01/14 06:15:51;;;;;;;;;;;;;;;8.34;81.70;100166.53;5032179;28;19909;-85
2023/01/14 06:18:21;;;;;;;;;;;;;;;8.45;81.62;100170.09;5033709;28;19913;-83
2023/01/14 06:23:49;;;;;;;;;;;;;;;8.57;81.14;100166.59;5033388;28;19959;-83
2023/01/14 06:26:18;;;;;;;;;;;;;;;8.51;81.07;100166.59;5033107;28;20326;-85
2023/01/14 06:28:43;;;;;;;;;;;;;;;8.47;81.02;100165.72;5033189;28;20375;-84
2023/01/14 06:34:11;;;;;;;;;;;;;;;8.48;81.11;100169.22;5033592;28;19983;-83
2023/01/14 06:36:37;;;;;;;;;;;;;;;8.54;80.90;100166.59;5033158;28;19913;-83
2023/01/14 06:39:03;;;;;;;;;;;;;;;8.30;82.07;100165.66;5033311;28;19913;-83
2023/01/14 06:41:28;;;;;;;;;;;;;;;8.17;83.27;100170.03;5032586;28;19913;-85
2023/01/14 06:43:54;;;;;;;;;;;;;;;8.10;83.32;100172.63;5033011;28;19913;-86
2023/01/14 06:46:19;;;;;;;;;;;;;;;7.87;84.27;100169.03;5033402;28;19948;-85
2023/01/14 06:48:45;;;;;;;;;;;;;;;7.90;84.58;100165.56;5032809;28;19920;-85
2023/01/14 06:51:12;;;;;;;;;;;;;;;8.05;84.72;100168.22;5033476;28;19913;-85
2023/01/14 06:53:38;;;;;;;;;;;;;;;8.09;84.10;100170.88;5033038;28;20390;-85
2023/01/14 06:56:08;;;;;;;;;;;;;;;8.19;84.48;100175.28;5032831;28;19916;-85
2023/01/14 06:58:34;;;;;;;;;;;;;;;7.99;84.90;100173.47;5032806;28;19935;-86
2023/01/14 07:01:01;;;;;;;;;;;;;;;8.23;84.38;100170.03;5032738;28;20352;-86
2023/01/14 07:03:27;;;;;;;;;;;;;;;8.15;84.29;100179.63;5032684;28;19913;-87
2023/01/14 07:05:52;;;;;;;;;;;;;;;8.29;83.48;100177.03;5032997;28;20416;-86
2023/01/14 07:08:18;;;;;;;;;;;;;;;8.24;83.97;100179.66;5032526;28;20371;-87
2023/01/14 07:13:46;;;;;;;;;;;;;;;8.17;84.65;100182.28;5033044;28;20028;-87
2023/01/14 07:16:11;;;;;;;;;;;;;;;8.22;84.21;100186.69;5032448;28;19952;-87
2023/01/14 07:18:36;;;;;;;;;;;;;;;8.21;84.63;100184.03;5032685;28;20348;-89
2023/01/14 07:27:07;;;;;;;;;;;;;;;8.27;83.67;100188.44;5033271;28;19916;-91
2023/01/14 07:29:32;;;;;;;;;;;;;;;8.24;84.05;100186.69;5033673;28;19913;-92
2023/01/14 07:31:58;;;;;;;;;;;;;;;8.49;83.29;100184.13;5032736;28;19913;-91
2023/01/14 07:34:24;;;;;;;;;;;;;;;8.38;83.57;100194.59;5032800;28;20379;-92
2023/01/14 07:36:49;;;;;;;;;;;;;;;8.19;83.45;100191.06;5029711;28;19920;-88
2023/01/14 07:39:14;;;;;;;;;;;;;;;8.42;82.85;100188.47;5031491;28;19920;-88
2023/01/14 07:44:55;;;;;;;;;;;;;;;8.54;82.04;100182.38;5024697;28;19924;-90
2023/01/14 07:47:20;;;;;;;;;;;;;;;8.59;82.20;100189.41;5032421;28;19917;-93
2023/01/14 07:49:46;;;;;;;;;;;;;;;8.55;82.83;100192.03;5032696;28;19917;-93
2023/01/14 07:52:14;;;;;;;;;;;;;;;8.66;82.56;100195.53;5033047;28;19936;-92
2023/01/14 07:54:40;;;;;;;;;;;;;;;8.60;82.68;100185.00;5047699;28;19920;-91
2023/01/14 07:57:06;;;;;;;;;;;;;;;8.57;83.26;100185.91;5032876;28;19924;-92
2023/01/14 07:59:32;;;;;;;;;;;;;;;8.71;82.18;100193.81;5047900;28;19913;-94
2023/01/14 08:01:57;;;;;;;;;;;;;;;8.55;82.19;100189.41;5048023;28;20302;-92
2023/01/14 08:07:25;;;;;;;;;;;;;;;8.75;80.90;100198.16;5032189;28;19956;-89
2023/01/14 08:09:51;;;;;;;;;;;;;;;8.78;81.00;100198.16;5031942;28;20315;-88
2023/01/14 08:12:17;;;;;;;;;;;;;;;8.59;80.65;100193.78;5032358;28;19920;-87
2023/01/14 08:14:43;;;;;;;;;;;;;;;8.52;81.50;100190.25;5032224;28;19953;-89
2023/01/14 08:17:09;;;;;;;;;;;;;;;8.46;81.14;100192.88;5031748;28;19917;-88
2023/01/14 08:19:34;;;;;;;;;;;;;;;8.45;81.13;100195.50;5032102;28;20344;-84
2023/01/14 08:21:59;;;;;;;;;;;;;;;8.33;81.87;100207.72;5032629;28;20344;-87
2023/01/14 08:24:25;;;;;;;;;;;;;;;8.60;81.78;100203.41;5032042;28;20375;-87
2023/01/14 08:26:50;;;;;;;;;;;;;;;8.86;80.25;100205.19;5031896;28;19920;-88
2023/01/14 08:29:17;;;;;;;;;;;;;;;8.68;80.57;100212.22;5035677;28;19909;-88
2023/01/14 08:31:43;;;;;;;;;;;;;;;8.95;80.05;100221.84;5035586;28;19917;-88
2023/01/14 08:34:08;;;;;;;;;;;;;;;9.01;79.55;100215.72;5035545;28;19912;-88
2023/01/14 08:36:34;;;;;;;;;;;;;;;8.93;79.28;100220.97;5035568;28;19988;-88
2023/01/14 08:38:59;;;;;;;;;;;;;;;8.92;79.86;100216.59;5035418;28;19917;-88
2023/01/14 08:41:24;;;;;;;;;;;;;;;9.10;78.74;100209.59;5035382;28;19913;-88
2023/01/14 08:43:51;;;;;;;;;;;;;;;9.03;79.11;100218.34;5035463;28;19917;-88
2023/01/14 08:46:17;;;;;;;;;;;;;;;8.92;79.58;100216.59;5035536;28;20007;-88
2023/01/14 08:48:42;;;;;;;;;;;;;;;9.04;79.12;100220.97;5035804;28;19948;-88
2023/01/14 08:51:09;;;;;;;;;;;;;;;8.71;80.01;100208.69;5034941;28;20007;-88
2023/01/14 08:53:35;;;;;;;;;;;;;;;8.68;81.15;100220.09;5034581;28;19914;-88
2023/01/14 08:56:01;;;;;;;;;;;;;;;8.70;81.90;100213.06;5035095;28;20287;-88
2023/01/14 08:58:27;;;;;;;;;;;;;;;8.73;81.80;100213.09;5035076;28;19952;-88
2023/01/14 09:00:59;;;;;;;;;;;;;;;8.70;81.94;100218.34;5049864;28;20445;-88
2023/01/14 09:03:26;;;;;;;;;;;;;;;8.65;82.50;100212.22;5034777;28;19971;-88
2023/01/14 09:05:57;;;;;;;;;;;;;;;8.52;83.11;100207.78;5035239;28;19920;-89
2023/01/14 09:17:20;;;;;;;;;;;;;;;8.50;84.23;100196.41;5012730;28;19913;-87
2023/01/14 09:22:55;;;;;;;;;;;;;;;8.31;84.19;100195.44;5013261;28;19929;-87
2023/01/14 09:25:20;;;;;;;;;;;;;;;8.60;83.43;100196.44;5012201;28;19922;-88
2023/01/14 09:27:45;;;;;;;;;;;;;;;8.52;83.25;100200.78;4998835;28;19913;-87
2023/01/14 09:30:11;;;;;;;;;;;;;;;8.55;83.92;100197.28;5034229;28;19953;-87
2023/01/14 09:32:37;;;;;;;;;;;;;;;8.75;82.76;100200.81;5034799;28;20375;-87
2023/01/14 09:35:02;;;;;;;;;;;;;;;8.57;84.11;100195.53;5034114;28;19914;-88
2023/01/14 09:37:27;;;;;;;;;;;;;;;8.75;82.83;100195.53;5049345;28;20088;-87
2023/01/14 09:43:17;;;;;;;;;;;;;;;8.95;81.66;100192.03;5034292;28;19967;-88
2023/01/14 09:45:43;;;;;;;;;;;;;;;9.08;81.04;100191.16;5034602;28;19924;-89
2023/01/14 09:51:40;;;;;;;;;;;;;;;9.30;80.31;100180.59;5034487;28;20329;-88
2023/01/14 09:57:09;;;;;;;;;;;;;;;9.41;79.95;100177.94;5034290;28;19916;-91
2023/01/14 09:59:46;;;;;;;;;;;;;;;9.55;79.49;100175.28;5034082;28;19913;-91
2023/01/14 10:02:20;;;;;;;;;;;;;;;9.60;79.05;100173.50;5033776;28;19913;-90
2023/01/14 10:04:45;;;;;;;;;;;;;;;9.59;78.64;100179.63;5049106;28;20413;-91
2023/01/14 10:07:12;;;;;;;;;;;;;;;9.60;79.18;100173.50;5034278;28;20051;-90
2023/01/14 10:09:57;;;;;;;;;;;;;;;9.53;79.01;100174.38;5033806;28;20055;-91
2023/01/14 10:12:26;;;;;;;;;;;;;;;9.54;79.38;100168.25;5032794;28;19924;-87
2023/01/14 10:14:54;;;;;;;;;;;;;;;9.56;79.07;100162.09;5048712;28;20330;-89
2023/01/14 10:20:35;;;;;;;;;;;;;;;9.50;79.26;100156.84;5034443;28;20302;-88
2023/01/14 10:23:20;;;;;;;;;;;;;;;9.45;80.20;100172.66;5033905;28;19948;-89
2023/01/14 10:25:50;;;;;;;;;;;;;;;9.27;80.49;100165.69;5033191;28;20375;-87
2023/01/14 10:28:16;;;;;;;;;;;;;;;9.28;81.19;100163.91;5033738;28;19917;-89
2023/01/14 10:30:42;;;;;;;;;;;;;;;9.22;82.41;100154.28;5033531;28;19913;-88
2023/01/14 10:36:16;;;;;;;;;;;;;;;9.05;83.43;100154.31;5033595;28;19939;-88
2023/01/14 10:38:42;;;;;;;;;;;;;;;9.13;83.24;100152.53;5033220;28;19913;-89
2023/01/14 10:41:08;;;;;;;;;;;;;;;9.09;83.97;100145.53;5034209;28;20257;-92
2023/01/14 10:43:42;;;;;;;;;;;;;;;8.91;85.52;100135.91;5033762;28;19913;-91
2023/01/14 10:46:14;;;;;;;;;;;;;;;9.03;84.99;100139.41;5038985;28;19920;-93
2023/01/14 10:49:03;;;;;;;;;;;;;;;8.91;85.14;100133.28;5035923;28;19914;-92
2023/01/14 10:51:28;;;;;;;;;;;;;;;8.94;85.51;100138.56;5033064;28;19920;-89
2023/01/14 10:54:13;;;;;;;;;;;;;;;9.11;84.78;100132.38;5033837;28;19913;-93
2023/01/14 10:56:47;;;;;;;;;;;;;;;9.07;84.89;100133.28;5032882;28;20075;-91
2023/01/14 10:59:21;;;;;;;;;;;;;;;9.11;84.63;100130.63;5033137;28;19970;-90
2023/01/14 11:01:47;;;;;;;;;;;;;;;9.23;83.90;100131.47;5032898;28;19913;-89
2023/01/14 11:07:35;;;;;;;;;;;;;;;9.47;83.24;100120.00;5033399;28;19934;-88
2023/01/14 11:13:33;;;;;;;;;;;;;;;9.77;81.75;100124.22;5033521;28;20378;-93
2023/01/14 11:15:58;;;;;;;;;;;;;;;9.71;82.37;100124.25;5027968;28;19913;-91
2023/01/14 11:21:27;;;;;;;;;;;;;;;9.47;83.29;100127.91;5032704;28;20315;-92
2023/01/14 11:24:17;;;;;;;;;;;;;;;9.40;83.89;100128.78;5031506;28;19917;-91
2023/01/14 11:26:43;;;;;;;;;;;;;;;9.37;84.18;100126.16;5021517;28;19921;-90
2023/01/14 11:29:08;;;;;;;;;;;;;;;9.20;85.25;100126.22;5032715;28;19909;-89
2023/01/14 11:31:38;;;;;;;;;;;;;;;9.13;85.69;100128.84;5031126;28;20351;-88
2023/01/14 11:34:05;;;;;;;;;;;;;;;9.15;85.19;100128.84;5032216;28;20434;-92
2023/01/14 11:36:33;;;;;;;;;;;;;;;9.29;84.84;100128.81;5032350;28;19918;-90
2023/01/14 11:38:59;;;;;;;;;;;;;;;9.14;84.94;100125.34;5032437;28;19913;-91
2023/01/14 11:44:28;;;;;;;;;;;;;;;8.87;86.51;100122.78;5029601;28;20031;-91
2023/01/14 11:50:11;;;;;;;;;;;;;;;8.70;87.57;100128.06;5032377;28;20011;-90
2023/01/14 11:52:36;;;;;;;;;;;;;;;8.69;87.66;100127.16;5031197;28;19920;-89
2023/01/14 11:55:02;;;;;;;;;;;;;;;8.76;88.13;100130.69;5033092;28;19913;-90
2023/01/14 12:00:31;;;;;;;;;;;;;;;8.77;87.61;100122.78;5032234;28;19931;-92
2023/01/14 12:03:00;;;;;;;;;;;;;;;8.82;88.00;100121.88;5033600;28;19919;-91
2023/01/14 12:05:25;;;;;;;;;;;;;;;8.84;87.73;100122.78;5036111;28;19917;-91
2023/01/14 12:10:59;;;;;;;;;;;;;;;8.89;87.07;100110.47;5036175;28;19931;-88
2023/01/14 12:19:08;;;;;;;;;;;;;;;8.74;88.08;100117.53;5034702;28;19936;-90
2023/01/14 12:21:43;;;;;;;;;;;;;;;8.67;88.93;100126.28;5035464;28;19921;-91
2023/01/14 12:24:35;;;;;;;;;;;;;;;8.82;88.33;100116.63;5034302;28;19916;-88
2023/01/14 12:27:02;;;;;;;;;;;;;;;8.83;87.09;100131.53;5035033;28;19920;-88
2023/01/14 12:29:33;;;;;;;;;;;;;;;8.91;87.76;100129.75;5036003;28;19913;-89
2023/01/14 12:35:02;;;;;;;;;;;;;;;8.82;87.74;100128.03;5035884;28;19931;-89
2023/01/14 12:46:12;;;;;;;;;;;;;;;8.81;88.42;100128.03;5035460;28;20287;-92
2023/01/14 12:48:38;;;;;;;;;;;;;;;8.72;87.80;100132.41;5035926;28;19920;-93
2023/01/14 12:51:15;;;;;;;;;;;;;;;8.86;87.84;100132.41;5035345;28;19909;-90
2023/01/14 12:53:41;;;;;;;;;;;;;;;8.78;87.84;100126.28;5035373;28;19920;-94
2023/01/14 12:59:20;;;;;;;;;;;;;;;9.08;86.98;100133.25;5035578;28;19920;-93
2023/01/14 13:01:51;;;;;;;;;;;;;;;9.02;87.66;100127.13;5034136;28;19932;-90
2023/01/14 13:04:28;;;;;;;;;;;;;;;9.00;87.19;100132.38;5035494;28;19920;-93
2023/01/14 13:07:17;;;;;;;;;;;;;;;8.99;86.94;100129.75;5031610;28;20388;-91
2023/01/14 13:09:44;;;;;;;;;;;;;;;8.89;87.65;100134.16;5034460;28;19917;-93
2023/01/14 13:12:25;;;;;;;;;;;;;;;8.80;88.22;100128.91;5033679;28;19913;-91
2023/01/14 13:14:53;;;;;;;;;;;;;;;8.90;88.06;100130.66;5033415;28;19979;-90
2023/01/14 13:17:21;;;;;;;;;;;;;;;8.98;87.45;100134.16;5034717;28;19913;-94
2023/01/14 13:19:48;;;;;;;;;;;;;;;9.00;87.09;100137.66;5035104;28;19920;-90
2023/01/14 13:22:34;;;;;;;;;;;;;;;9.06;86.70;100144.66;5034870;28;19971;-92
2023/01/14 13:25:01;;;;;;;;;;;;;;;8.96;87.01;100142.03;5033528;28;20284;-93
2023/01/14 13:30:29;;;;;;;;;;;;;;;9.28;86.21;100138.47;5034838;28;19916;-92
2023/01/14 13:33:01;;;;;;;;;;;;;;;9.30;85.15;100138.47;5034441;28;19917;-96
2023/01/14 13:35:29;;;;;;;;;;;;;;;9.36;85.02;100125.31;5035255;28;19916;-92
2023/01/14 13:41:06;;;;;;;;;;;;;;;9.54;84.46;100128.75;5034956;28;19931;-93
2023/01/14 13:43:34;;;;;;;;;;;;;;;9.52;83.89;100133.16;5038599;28;20000;-96
2023/01/14 13:46:18;;;;;;;;;;;;;;;9.57;83.21;100136.63;5040167;28;19917;-96
2023/01/14 13:48:51;;;;;;;;;;;;;;;9.43;83.68;100136.69;5037978;28;20371;-96
2023/01/14 13:51:17;;;;;;;;;;;;;;;9.45;84.01;100142.81;5036316;28;19913;-96
2023/01/14 13:53:53;;;;;;;;;;;;;;;9.54;83.83;100149.81;5037511;28;19913;-95
2023/01/14 13:56:20;;;;;;;;;;;;;;;9.64;83.02;100141.00;5050756;28;19952;-95
2023/01/14 14:01:49;;;;;;;;;;;;;;;9.56;83.32;100145.41;5034129;28;20447;-94
2023/01/14 14:04:34;;;;;;;;;;;;;;;9.57;83.29;100145.41;5034129;28;20008;-90
2023/01/14 14:07:00;;;;;;;;;;;;;;;9.59;83.15;100140.13;5032994;28;19996;-92
2023/01/14 14:21:21;;;;;;;;;;;;;;;9.53;83.38;100141.03;5034843;28;20007;-96
2023/01/14 14:26:50;;;;;;;;;;;;;;;9.58;83.48;100143.66;5033526;28;19916;-94
2023/01/14 14:29:16;;;;;;;;;;;;;;;9.55;83.19;100147.16;5033634;28;19917;-92
2023/01/14 14:31:44;;;;;;;;;;;;;;;9.59;83.17;100148.03;5032122;28;20075;-94
2023/01/14 14:37:21;;;;;;;;;;;;;;;9.64;82.89;100151.53;5033484;28;19916;-93
2023/01/14 14:39:52;;;;;;;;;;;;;;;9.62;83.11;100151.53;5033129;28;19913;-91
2023/01/14 14:42:23;;;;;;;;;;;;;;;9.64;83.14;100151.53;5033394;28;19920;-94
2023/01/14 14:51:44;;;;;;;;;;;;;;;9.59;82.67;100151.56;5034105;28;20398;-96
2023/01/14 14:54:23;;;;;;;;;;;;;;;9.58;82.57;100157.69;5032333;28;19917;-94
2023/01/14 14:56:48;;;;;;;;;;;;;;;9.57;82.81;100161.19;5032633;28;19924;-92
2023/01/14 15:02:28;;;;;;;;;;;;;;;9.54;82.43;100161.22;5034388;28;19916;-96
2023/01/14 15:04:55;;;;;;;;;;;;;;;9.41;82.56;100168.28;5033308;28;20388;-91
2023/01/14 15:07:20;;;;;;;;;;;;;;;9.39;82.76;100169.16;5033861;28;19913;-96
2023/01/14 15:12:49;;;;;;;;;;;;;;;9.29;83.75;100174.44;5033386;28;20358;-95
2023/01/14 15:15:20;;;;;;;;;;;;;;;9.42;83.02;100175.31;5032862;28;19936;-95
2023/01/14 15:17:46;;;;;;;;;;;;;;;9.41;83.01;100175.31;5031861;28;20049;-93
2023/01/14 15:20:12;;;;;;;;;;;;;;;9.52;82.83;100180.56;5048315;28;19909;-95
2023/01/14 15:22:38;;;;;;;;;;;;;;;9.48;82.99;100179.66;5031615;28;19913;-93
2023/01/14 15:25:06;;;;;;;;;;;;;;;9.50;82.50;100180.56;5031274;28;20291;-94
2023/01/14 15:27:32;;;;;;;;;;;;;;;9.48;82.76;100185.81;5032523;28;19913;-92
2023/01/14 15:30:00;;;;;;;;;;;;;;;9.52;82.83;100188.44;5047945;28;19947;-93
2023/01/14 15:32:26;;;;;;;;;;;;;;;9.55;83.26;100191.06;5033050;28;20006;-91
2023/01/14 15:38:14;;;;;;;;;;;;;;;9.97;83.20;100194.44;5035676;28;19939;-91
2023/01/14 15:43:46;;;;;;;;;;;;;;;10.09;82.63;100201.41;5036557;28;21791;-91
2023/01/14 15:46:40;;;;;;;;;;;;;;;9.98;81.85;100204.09;5036027;28;19913;-91
2023/01/14 15:49:07;;;;;;;;;;;;;;;9.86;81.44;100203.25;5036745;28;19927;-94
2023/01/14 15:54:47;;;;;;;;;;;;;;;9.72;81.51;100207.69;5036878;28;20307;-95
2023/01/14 16:00:28;;;;;;;;;;;;;;;9.48;82.27;100212.16;5036900;28;19920;-94
2023/01/14 16:02:55;;;;;;;;;;;;;;;9.47;81.79;100213.03;5036233;28;19913;-94